Time;durP1;ratioP1;P1;durP2;ratioP2;P2;SDS_P1;SDS_P2;PMS_P1;PMS_P2;Temp;Humidity;BMP_temperature;BMP_pressure;BME280_temperature;BME280_humidity;BME280_pressure;Samples;Min_cycle;Max_cycle;Signal;HPM_P1;HPM_P2
2022/04/09 00:00:21;;;;;;;12.40;7.83;;;4.60;99.70;;;;;;4976315;28;20487;-80
2022/04/09 00:02:47;;;;;;;11.07;7.83;;;4.60;99.80;;;;;;4976000;28;20383;-79
2022/04/09 00:05:13;;;;;;;13.83;8.43;;;4.70;99.90;;;;;;4975500;28;20026;-80
2022/04/09 00:07:39;;;;;;;8.50;7.47;;;4.60;99.70;;;;;;4975548;28;20019;-79
2022/04/09 00:10:08;;;;;;;12.70;8.20;;;4.60;99.90;;;;;;4975798;28;20215;-80
2022/04/09 00:12:35;;;;;;;12.37;7.93;;;4.60;99.90;;;;;;4975567;28;20534;-79
2022/04/09 00:15:01;;;;;;;11.43;8.17;;;4.60;99.90;;;;;;4975783;28;20113;-79
2022/04/09 00:17:27;;;;;;;10.87;8.30;;;4.60;99.70;;;;;;4975329;28;20102;-79
2022/04/09 00:19:53;;;;;;;12.50;8.07;;;4.60;99.90;;;;;;4975273;28;20106;-79
2022/04/09 00:22:19;;;;;;;9.77;7.60;;;4.60;99.90;;;;;;4975224;28;20491;-79
2022/04/09 00:24:45;;;;;;;10.37;7.27;;;4.60;99.90;;;;;;4975230;28;20027;-79
2022/04/09 01:27:20;;;;;;;6.90;5.83;;;3.10;99.90;;;;;;5572548;23;20141;-79
2022/04/09 01:29:45;;;;;;;12.40;6.73;;;3.10;99.90;;;;;;4974087;28;20121;-79
2022/04/09 01:32:11;;;;;;;8.87;6.33;;;3.10;99.90;;;;;;4973892;28;20123;-79
2022/04/09 01:34:38;;;;;;;9.17;6.20;;;3.20;99.90;;;;;;4973500;28;20074;-78
2022/04/09 01:37:04;;;;;;;9.47;5.90;;;3.30;99.90;;;;;;4962586;28;20062;-79
2022/04/09 01:39:30;;;;;;;9.30;5.87;;;3.30;99.90;;;;;;4963083;28;20393;-79
2022/04/09 01:41:57;;;;;;;8.30;5.80;;;3.20;99.90;;;;;;4955378;28;20034;-79
2022/04/09 01:44:22;;;;;;;6.37;5.50;;;3.30;99.90;;;;;;4955273;28;20088;-79
2022/04/09 01:46:48;;;;;;;7.33;5.80;;;3.20;99.90;;;;;;4955516;28;20027;-79
2022/04/09 01:49:14;;;;;;;7.67;5.60;;;3.20;99.90;;;;;;4955336;28;20027;-79
2022/04/09 01:51:40;;;;;;;8.33;5.90;;;3.20;99.90;;;;;;4954957;28;20472;-79
2022/04/09 01:54:06;;;;;;;6.47;5.53;;;3.30;99.90;;;;;;4954959;28;20019;-79
2022/04/09 01:56:32;;;;;;;8.67;5.37;;;3.20;99.90;;;;;;4954779;28;20034;-79
2022/04/09 01:58:58;;;;;;;8.53;5.27;;;3.30;99.90;;;;;;4961186;28;20015;-79
2022/04/09 02:01:24;;;;;;;6.97;4.60;;;3.20;99.90;;;;;;4954724;28;20380;-79
2022/04/09 02:03:49;;;;;;;6.67;5.53;;;3.20;99.90;;;;;;4955077;28;20023;-79
2022/04/09 02:06:15;;;;;;;8.47;5.70;;;3.20;99.90;;;;;;4954745;28;20052;-79
2022/04/09 02:08:41;;;;;;;7.93;6.00;;;3.10;99.90;;;;;;4954789;28;20416;-79
2022/04/09 02:11:07;;;;;;;7.20;5.10;;;3.00;99.90;;;;;;4954901;28;20495;-79
2022/04/09 02:13:33;;;;;;;8.10;5.67;;;3.00;99.90;;;;;;4953661;28;20026;-79
2022/04/09 02:15:59;;;;;;;7.30;5.13;;;2.90;99.90;;;;;;4954640;28;20031;-79
2022/04/09 02:18:24;;;;;;;8.20;5.93;;;2.70;99.90;;;;;;4954520;28;20030;-78
2022/04/09 02:20:52;;;;;;;7.97;5.90;;;2.60;99.90;;;;;;4954384;28;20452;-78
2022/04/09 02:23:18;;;;;;;11.30;7.17;;;2.50;99.90;;;;;;4954735;28;20011;-79
2022/04/09 02:25:44;;;;;;;7.70;6.20;;;2.50;99.90;;;;;;4954637;28;20441;-79
2022/04/09 02:28:10;;;;;;;9.20;6.33;;;2.40;99.90;;;;;;4974638;23;20047;-79
2022/04/09 02:30:35;;;;;;;12.80;6.30;;;2.30;99.90;;;;;;4938858;29;20023;-79
2022/04/09 02:33:01;;;;;;;10.30;6.80;;;2.10;99.90;;;;;;4938542;28;20107;-79
2022/04/09 02:35:28;;;;;;;9.37;7.30;;;2.00;99.90;;;;;;4934881;29;20583;-79
2022/04/09 02:37:54;;;;;;;11.17;6.67;;;2.10;99.90;;;;;;4945877;28;20023;-80
2022/04/09 02:40:20;;;;;;;10.10;6.97;;;2.00;99.90;;;;;;4953076;28;20031;-80
2022/04/09 02:42:46;;;;;;;11.67;7.27;;;1.90;99.90;;;;;;4952969;28;20023;-79
2022/04/09 02:45:12;;;;;;;9.50;7.23;;;1.80;99.90;;;;;;4953013;28;20027;-80
2022/04/09 02:47:39;;;;;;;8.80;6.87;;;1.70;99.90;;;;;;4953150;28;20023;-80
2022/04/09 02:50:06;;;;;;;10.17;7.30;;;1.50;99.90;;;;;;4953040;28;20457;-79
2022/04/09 02:52:37;;;;;;;9.20;7.70;;;1.50;99.90;;;;;;4953102;28;20031;-79
2022/04/09 02:55:05;;;;;;;12.00;7.93;;;1.50;99.90;;;;;;4952777;28;20039;-79
2022/04/09 02:57:31;;;;;;;12.03;8.20;;;1.30;99.90;;;;;;4951056;28;20034;-79
2022/04/09 02:59:56;;;;;;;15.17;8.20;;;1.30;99.90;;;;;;4951663;29;20031;-79
2022/04/09 03:02:22;;;;;;;11.60;8.53;;;1.30;99.90;;;;;;4951430;29;20362;-80
2022/04/09 03:04:48;;;;;;;13.07;7.87;;;1.40;99.90;;;;;;4952578;28;20098;-79
2022/04/09 03:07:14;;;;;;;12.50;8.63;;;1.40;99.90;;;;;;4952802;28;20468;-79
2022/04/09 03:09:39;;;;;;;14.20;8.37;;;1.50;99.90;;;;;;4952560;28;20081;-79
2022/04/09 03:12:05;;;;;;;14.07;7.50;;;1.60;99.90;;;;;;4952052;28;20105;-79
2022/04/09 03:14:31;;;;;;;11.53;7.83;;;1.50;99.90;;;;;;4952948;28;20066;-79
2022/04/09 03:16:57;;;;;;;14.27;8.03;;;1.50;99.90;;;;;;4952547;28;20035;-79
2022/04/09 03:19:23;;;;;;;12.30;7.93;;;1.50;99.90;;;;;;4952607;28;20528;-79
2022/04/09 03:21:48;;;;;;;10.70;7.43;;;1.30;99.90;;;;;;4952994;28;20094;-79
2022/04/09 03:24:14;;;;;;;13.00;7.77;;;1.20;99.90;;;;;;4952414;28;20046;-79
2022/04/09 03:26:40;;;;;;;10.80;8.00;;;1.10;99.90;;;;;;4973768;23;20027;-79
2022/04/09 03:29:06;;;;;;;9.53;6.63;;;0.90;99.90;;;;;;4939738;28;20032;-78
2022/04/09 03:31:34;;;;;;;10.80;7.33;;;0.80;99.90;;;;;;4955166;28;20068;-79
2022/04/09 03:33:59;;;;;;;9.40;6.47;;;0.90;99.90;;;;;;4941648;29;20023;-79
2022/04/09 03:36:25;;;;;;;16.17;7.67;;;0.90;99.90;;;;;;4944307;28;20041;-79
2022/04/09 03:38:51;;;;;;;10.10;7.13;;;0.90;99.90;;;;;;4932525;29;20039;-79
2022/04/09 03:41:16;;;;;;;9.80;7.17;;;0.90;99.90;;;;;;4932644;29;20031;-80
2022/04/09 03:43:42;;;;;;;13.00;7.47;;;0.90;99.90;;;;;;4932783;29;20118;-79
2022/04/09 03:46:08;;;;;;;10.77;6.23;;;0.80;99.90;;;;;;4932272;29;20028;-79
2022/04/09 03:48:34;;;;;;;9.50;6.43;;;0.80;99.90;;;;;;4932314;29;20020;-79
2022/04/09 03:50:59;;;;;;;11.93;7.00;;;0.70;99.90;;;;;;4932832;29;20055;-79
2022/04/09 03:53:25;;;;;;;12.23;7.37;;;0.70;99.90;;;;;;4932557;29;20110;-79
2022/04/09 03:55:51;;;;;;;9.43;6.70;;;0.60;99.90;;;;;;4932184;29;20075;-79
2022/04/09 03:58:19;;;;;;;8.47;6.20;;;0.50;99.90;;;;;;4932694;29;20409;-79
2022/04/09 04:00:45;;;;;;;10.47;7.13;;;0.40;99.90;;;;;;4925906;29;20027;-79
2022/04/09 04:03:11;;;;;;;10.07;6.63;;;0.30;99.90;;;;;;4932371;29;20027;-79
2022/04/09 04:05:37;;;;;;;10.97;7.50;;;0.20;99.90;;;;;;4932367;29;20024;-79
2022/04/09 04:08:05;;;;;;;11.87;7.47;;;0.10;99.90;;;;;;4932425;29;20032;-78
2022/04/09 04:10:31;;;;;;;10.80;6.77;;;0.20;99.90;;;;;;4932304;29;20024;-79
2022/04/09 04:12:57;;;;;;;11.63;6.87;;;0.30;99.90;;;;;;4932386;29;20051;-79
2022/04/09 04:15:22;;;;;;;9.80;6.43;;;0.20;99.90;;;;;;4932616;29;20067;-79
2022/04/09 04:17:51;;;;;;;8.93;6.87;;;0.20;99.90;;;;;;4932262;29;20047;-79
2022/04/09 04:20:17;;;;;;;10.33;7.30;;;0.10;99.90;;;;;;4932205;29;20123;-79
2022/04/09 04:22:43;;;;;;;12.03;7.77;;;0.00;99.90;;;;;;4932536;29;20115;-79
2022/04/09 04:25:09;;;;;;;12.27;7.47;;;-0.10;99.90;;;;;;4934662;29;20031;-79
2022/04/09 04:27:45;;;;;;;12.23;7.10;;;-0.10;99.90;;;;;;4957249;23;20164;-79
2022/04/09 04:30:11;;;;;;;10.73;7.63;;;-0.10;99.90;;;;;;4967588;28;20106;-79
2022/04/09 04:32:36;;;;;;;10.77;7.10;;;-0.10;99.90;;;;;;4967916;28;20602;-78
2022/04/09 04:35:03;;;;;;;9.93;6.70;;;-0.20;99.90;;;;;;4965260;28;20034;-79
2022/04/09 04:37:43;;;;;;;10.43;7.03;;;-0.10;99.90;;;;;;4961954;28;20030;-79
2022/04/09 04:40:10;;;;;;;8.60;7.00;;;-0.10;99.90;;;;;;4950832;28;20389;-79
2022/04/09 04:42:36;;;;;;;13.03;8.17;;;0.00;99.90;;;;;;4955412;28;20419;-79
2022/04/09 04:45:04;;;;;;;11.50;7.13;;;-0.10;99.90;;;;;;4956017;28;20024;-79
2022/04/09 04:47:29;;;;;;;12.37;7.87;;;0.00;99.90;;;;;;4955925;28;20019;-79
2022/04/09 04:49:55;;;;;;;11.23;6.87;;;-0.20;99.90;;;;;;4955581;28;20361;-79
2022/04/09 04:52:21;;;;;;;11.13;8.30;;;-0.40;99.90;;;;;;4955535;28;20022;-79
2022/04/09 04:54:46;;;;;;;10.97;7.70;;;-0.50;99.90;;;;;;4955913;28;20043;-78
2022/04/09 04:57:12;;;;;;;12.90;8.50;;;-0.40;99.90;;;;;;4944254;28;20094;-79
2022/04/09 04:59:38;;;;;;;14.53;7.87;;;-0.30;99.90;;;;;;4953900;28;20467;-78
2022/04/09 05:02:04;;;;;;;15.97;9.80;;;-0.10;99.90;;;;;;4955689;28;20019;-78
2022/04/09 05:04:30;;;;;;;15.67;9.10;;;0.00;99.90;;;;;;4955699;28;20031;-78
2022/04/09 05:06:56;;;;;;;13.73;8.83;;;-0.20;99.90;;;;;;4955568;28;20038;-79
2022/04/09 05:09:22;;;;;;;14.60;9.13;;;-0.30;99.90;;;;;;4956051;28;20058;-79
2022/04/09 05:11:48;;;;;;;16.03;9.27;;;-0.40;99.90;;;;;;4955552;28;20468;-78
2022/04/09 05:14:14;;;;;;;15.47;9.40;;;-0.30;99.90;;;;;;4955811;28;20019;-78
2022/04/09 05:16:39;;;;;;;13.30;8.53;;;-0.30;99.90;;;;;;4955399;28;20053;-79
2022/04/09 05:19:05;;;;;;;15.00;8.40;;;-0.30;99.90;;;;;;4955464;28;20016;-78
2022/04/09 05:21:31;;;;;;;17.80;10.50;;;-0.40;99.90;;;;;;4955514;28;20102;-79
2022/04/09 05:23:57;;;;;;;15.47;9.60;;;-0.20;99.90;;;;;;4954119;28;20023;-78
2022/04/09 05:26:22;;;;;;;17.63;10.17;;;-0.10;99.90;;;;;;4954943;28;20027;-79
2022/04/09 05:28:53;;;;;;;17.73;10.27;;;0.00;99.90;;;;;;4974087;23;20050;-79
2022/04/09 05:31:27;;;;;;;23.07;11.60;;;0.00;99.90;;;;;;4961673;28;20443;-79
2022/04/09 05:33:56;;;;;;;29.77;14.40;;;0.00;99.90;;;;;;4965972;28;20030;-79
2022/04/09 05:36:21;;;;;;;30.67;15.00;;;-0.10;99.90;;;;;;4961176;28;20114;-79
2022/04/09 05:38:48;;;;;;;36.23;16.67;;;-0.20;99.90;;;;;;4951998;28;20126;-79
2022/04/09 05:41:13;;;;;;;34.60;15.27;;;-0.20;99.90;;;;;;4952711;28;20024;-79
2022/04/09 05:43:39;;;;;;;29.80;14.67;;;-0.30;99.90;;;;;;4954077;28;20019;-79
2022/04/09 05:46:05;;;;;;;36.17;17.40;;;-0.20;99.90;;;;;;4953782;28;20106;-79
2022/04/09 05:48:31;;;;;;;39.07;17.87;;;-0.10;99.90;;;;;;4954108;28;20027;-78
2022/04/09 05:50:58;;;;;;;34.20;16.67;;;-0.20;99.90;;;;;;4954105;28;20038;-79
2022/04/09 05:53:23;;;;;;;44.83;19.93;;;-0.10;99.90;;;;;;4953892;28;20023;-78
2022/04/09 05:55:49;;;;;;;41.77;19.50;;;-0.10;99.90;;;;;;4954067;28;20042;-78
2022/04/09 05:58:15;;;;;;;37.50;16.80;;;0.00;99.90;;;;;;4953777;29;20070;-79
2022/04/09 06:00:40;;;;;;;37.07;18.40;;;0.00;99.90;;;;;;4953913;28;20023;-79
2022/04/09 06:03:06;;;;;;;41.33;18.87;;;0.00;99.90;;;;;;4953822;28;20081;-78
2022/04/09 06:05:32;;;;;;;40.53;18.27;;;0.10;99.90;;;;;;4954104;28;20027;-79
2022/04/09 06:07:58;;;;;;;42.43;20.93;;;0.10;99.90;;;;;;4953214;28;20030;-79
2022/04/09 06:10:24;;;;;;;48.93;19.43;;;0.30;99.90;;;;;;4953598;28;20027;-79
2022/04/09 06:12:50;;;;;;;36.53;18.13;;;0.40;99.90;;;;;;4953158;28;20036;-79
2022/04/09 06:15:15;;;;;;;39.17;19.67;;;0.70;99.90;;;;;;4948376;28;20395;-79
2022/04/09 06:17:41;;;;;;;40.37;18.33;;;0.70;99.90;;;;;;4952747;28;20067;-79
2022/04/09 06:20:08;;;;;;;37.10;17.47;;;0.80;99.90;;;;;;4953118;28;20023;-79
2022/04/09 06:22:34;;;;;;;33.90;17.87;;;0.90;99.90;;;;;;4951529;28;20428;-79
2022/04/09 06:25:00;;;;;;;35.53;18.07;;;1.00;99.90;;;;;;4952921;28;20037;-79
2022/04/09 06:27:26;;;;;;;43.67;19.27;;;1.10;99.90;;;;;;4975006;23;20161;-79
2022/04/09 06:29:52;;;;;;;31.93;17.80;;;1.20;99.90;;;;;;4959233;28;20454;-79
2022/04/09 06:32:17;;;;;;;30.10;15.53;;;1.30;99.90;;;;;;4958234;28;20098;-79
2022/04/09 06:34:43;;;;;;;30.97;15.67;;;1.40;99.90;;;;;;4958065;28;20097;-79
2022/04/09 06:37:09;;;;;;;28.50;15.47;;;1.50;99.90;;;;;;4954153;28;20384;-79
2022/04/09 06:39:35;;;;;;;27.53;16.13;;;1.60;99.90;;;;;;4946286;29;20082;-79
2022/04/09 06:42:01;;;;;;;31.23;17.10;;;1.70;99.90;;;;;;4945743;28;20057;-79
2022/04/09 06:44:27;;;;;;;25.00;15.23;;;1.90;99.90;;;;;;4946484;29;20031;-79
2022/04/09 06:46:52;;;;;;;26.67;13.93;;;2.00;99.90;;;;;;4944972;28;20037;-79
2022/04/09 06:49:18;;;;;;;21.53;12.90;;;2.10;99.90;;;;;;4950994;28;20026;-79
2022/04/09 06:51:48;;;;;;;25.23;14.37;;;2.30;99.90;;;;;;4951957;29;20380;-79
2022/04/09 06:54:13;;;;;;;24.03;13.73;;;2.40;99.90;;;;;;4952080;28;20107;-79
2022/04/09 06:56:39;;;;;;;22.23;13.77;;;2.50;99.90;;;;;;4951229;29;20118;-80
2022/04/09 06:59:05;;;;;;;22.47;14.23;;;2.60;99.90;;;;;;4951050;29;20451;-79
2022/04/09 07:01:31;;;;;;;22.30;13.00;;;2.70;99.90;;;;;;4947650;28;20127;-79
2022/04/09 07:03:57;;;;;;;23.00;12.93;;;2.80;99.90;;;;;;4951356;28;20375;-79
2022/04/09 07:06:23;;;;;;;22.73;13.10;;;2.90;99.90;;;;;;4948620;29;20500;-79
2022/04/09 07:08:50;;;;;;;19.73;11.37;;;3.00;99.90;;;;;;4948620;29;20060;-79
2022/04/09 07:11:16;;;;;;;13.03;7.20;;;3.10;99.90;;;;;;4950406;28;20039;-79
2022/04/09 07:13:42;;;;;;;15.73;6.70;;;3.40;99.90;;;;;;4940247;29;20031;-79
2022/04/09 07:16:08;;;;;;;5.80;4.50;;;3.60;99.90;;;;;;4949766;29;20050;-79
2022/04/09 07:18:33;;;;;;;11.00;5.03;;;3.80;99.90;;;;;;4951534;28;20103;-80
2022/04/09 07:21:01;;;;;;;10.90;4.57;;;4.10;99.90;;;;;;4952176;28;20461;-79
2022/04/09 07:23:27;;;;;;;8.37;4.23;;;4.20;99.90;;;;;;4945450;28;20016;-80
2022/04/09 07:25:53;;;;;;;11.30;4.47;;;4.50;99.80;;;;;;4943925;28;20536;-79
2022/04/09 08:27:53;;;;;;;4.63;2.65;;;6.30;91.30;;;;;;5531048;23;20538;-80
2022/04/09 08:30:21;;;;;;;5.65;3.25;;;6.50;90.60;;;;;;4960008;28;20015;-79
2022/04/09 08:32:47;;;;;;;5.40;3.30;;;6.60;91.40;;;;;;4958766;28;20623;-79
2022/04/09 08:35:12;;;;;;;7.03;3.47;;;6.60;91.30;;;;;;4964017;28;20042;-79
2022/04/09 08:37:40;;;;;;;5.55;3.30;;;6.70;91.30;;;;;;4959620;28;20034;-79
2022/04/09 08:40:07;;;;;;;4.63;3.40;;;6.80;90.80;;;;;;4954921;28;20049;-79
2022/04/09 08:42:35;;;;;;;7.18;2.85;;;6.90;92.30;;;;;;4954458;28;20027;-80
2022/04/09 08:45:01;;;;;;;4.22;2.78;;;7.10;91.30;;;;;;4950293;29;20031;-80
2022/04/09 08:47:28;;;;;;;7.63;3.20;;;7.30;90.20;;;;;;4952247;29;20031;-80
2022/04/09 08:49:56;;;;;;;7.25;2.40;;;7.70;90.10;;;;;;4953043;28;20031;-79
2022/04/09 08:52:23;;;;;;;4.72;2.40;;;8.20;85.70;;;;;;4954731;28;20106;-80
2022/04/09 08:54:48;;;;;;;4.22;2.97;;;8.90;84.10;;;;;;4954567;28;20031;-79
2022/04/09 08:57:14;;;;;;;3.97;2.95;;;9.30;81.00;;;;;;4954493;28;20034;-80
2022/04/09 08:59:40;;;;;;;8.05;2.50;;;9.80;81.60;;;;;;4953803;28;20468;-79
2022/04/09 09:02:06;;;;;;;6.75;2.50;;;10.40;82.80;;;;;;4955622;28;20034;-82
2022/04/09 09:04:33;;;;;;;5.28;2.42;;;10.90;76.90;;;;;;4954085;28;20030;-79
2022/04/09 09:07:28;;;;;;;2.90;1.80;;;11.20;73.30;;;;;;4952780;28;20118;-78
2022/04/09 09:10:13;;;;;;;3.42;1.65;;;11.70;74.80;;;;;;4942929;28;20484;-81
2022/04/09 09:12:39;;;;;;;4.63;2.15;;;12.20;72.00;;;;;;4948849;29;20033;-79
2022/04/09 09:15:05;;;;;;;5.40;2.20;;;12.40;71.50;;;;;;4950099;29;20027;-79
2022/04/09 09:17:31;;;;;;;5.57;1.98;;;12.60;68.30;;;;;;4948571;28;20058;-79
2022/04/09 09:19:58;;;;;;;3.75;1.95;;;12.80;67.50;;;;;;4954346;28;20632;-80
2022/04/09 09:22:40;;;;;;;2.50;1.55;;;12.70;63.60;;;;;;4954450;28;20031;-78
2022/04/09 09:25:09;;;;;;;2.88;1.33;;;13.00;65.20;;;;;;4952927;28;20031;-78
2022/04/09 09:27:35;;;;;;;4.82;1.45;;;13.80;64.40;;;;;;4980153;23;20037;-78
2022/04/09 09:30:02;;;;;;;5.20;1.13;;;14.90;61.60;;;;;;4963404;28;20578;-79
2022/04/09 09:32:29;;;;;;;3.42;1.30;;;16.20;53.00;;;;;;4963693;28;20025;-78
2022/04/09 09:35:01;;;;;;;3.83;1.33;;;17.00;50.10;;;;;;4960537;28;20031;-78
2022/04/09 09:37:28;;;;;;;3.35;1.48;;;18.10;47.80;;;;;;4961660;28;20090;-77
2022/04/09 09:39:54;;;;;;;3.25;1.20;;;18.70;44.00;;;;;;4954890;28;20030;-78
2022/04/09 09:42:21;;;;;;;4.95;1.00;;;19.00;42.80;;;;;;4954437;28;20027;-79
2022/04/09 09:44:48;;;;;;;3.22;0.95;;;19.50;40.40;;;;;;4954763;28;20023;-77
2022/04/09 09:47:17;;;;;;;4.20;1.55;;;20.10;38.30;;;;;;4954953;28;20011;-76
2022/04/09 09:49:48;;;;;;;5.40;1.60;;;19.40;37.80;;;;;;4955070;28;20097;-77
2022/04/09 09:52:14;;;;;;;5.47;1.75;;;19.70;41.60;;;;;;4955103;28;20031;-77
2022/04/09 09:55:02;;;;;;;3.97;1.00;;;21.00;38.60;;;;;;4954652;28;20019;-77
2022/04/09 09:57:29;;;;;;;2.38;1.15;;;21.60;34.90;;;;;;4950499;28;20055;-77
2022/04/09 10:00:01;;;;;;;4.10;1.08;;;22.20;36.00;;;;;;4950729;28;20445;-77
2022/04/09 10:02:27;;;;;;;5.38;1.33;;;21.80;34.80;;;;;;4954748;28;20030;-77
2022/04/09 10:04:53;;;;;;;5.28;1.30;;;22.30;32.60;;;;;;4950939;28;20415;-76
2022/04/09 10:07:20;;;;;;;6.38;1.25;;;21.50;34.10;;;;;;4954224;28;20023;-77
2022/04/09 10:09:49;;;;;;;2.97;0.75;;;21.00;34.20;;;;;;4954468;28;20027;-77
2022/04/09 10:12:25;;;;;;;3.85;1.00;;;21.40;34.20;;;;;;4952225;28;20050;-77
2022/04/09 10:14:58;;;;;;;3.45;1.30;;;22.30;35.30;;;;;;4948418;28;20086;-77
2022/04/09 10:17:26;;;;;;;2.38;0.80;;;22.90;30.30;;;;;;4954074;28;20046;-76
2022/04/09 10:20:01;;;;;;;2.42;0.95;;;21.90;30.50;;;;;;4952740;28;20024;-76
2022/04/09 10:22:35;;;;;;;2.13;0.70;;;21.10;32.70;;;;;;4952395;28;20031;-77
2022/04/09 10:25:03;;;;;;;5.00;1.30;;;21.00;35.20;;;;;;4954074;28;20094;-77
2022/04/09 10:27:52;;;;;;;2.60;1.05;;;21.30;34.50;;;;;;4967888;23;20035;-76
2022/04/09 10:30:22;;;;;;;3.33;0.77;;;21.30;32.70;;;;;;4964701;28;20113;-76
2022/04/09 10:32:59;;;;;;;2.80;0.70;;;21.50;35.90;;;;;;4964379;28;20033;-77
2022/04/09 10:35:39;;;;;;;6.15;1.13;;;22.00;32.80;;;;;;4963223;28;20121;-77
2022/04/09 10:38:07;;;;;;;1.65;0.55;;;22.30;28.00;;;;;;4962382;28;20557;-77
2022/04/09 10:40:49;;;;;;;1.73;0.55;;;22.70;30.00;;;;;;4953863;28;20019;-77
2022/04/09 10:43:24;;;;;;;4.85;1.15;;;22.50;29.90;;;;;;4951560;28;20138;-77
2022/04/09 10:46:02;;;;;;;5.97;1.40;;;22.10;28.10;;;;;;4947176;28;20032;-77
2022/04/09 10:48:32;;;;;;;2.33;0.52;;;20.60;29.50;;;;;;4946534;28;20380;-78
2022/04/09 10:51:04;;;;;;;1.88;0.60;;;21.20;28.90;;;;;;4952805;28;20058;-76
2022/04/09 10:53:35;;;;;;;1.15;0.43;;;21.40;30.00;;;;;;4944946;28;20020;-77
2022/04/09 10:56:27;;;;;;;2.85;0.70;;;22.30;30.00;;;;;;4948017;28;20126;-76
2022/04/09 10:59:12;;;;;;;3.08;0.60;;;22.90;27.00;;;;;;4944120;28;20019;-78
2022/04/09 11:01:47;;;;;;;1.05;0.40;;;24.20;28.30;;;;;;4947666;28;20019;-77
2022/04/09 11:04:28;;;;;;;4.57;0.60;;;23.50;26.90;;;;;;4949738;28;20511;-76
2022/04/09 11:07:10;;;;;;;5.25;0.40;;;23.70;26.60;;;;;;4945619;28;20053;-77
2022/04/09 11:09:58;;;;;;;3.35;0.70;;;23.20;28.40;;;;;;4951452;28;20053;-75
2022/04/09 11:12:28;;;;;;;3.17;0.70;;;22.40;30.80;;;;;;4953416;28;20027;-75
2022/04/09 11:15:02;;;;;;;2.47;0.90;;;21.70;28.50;;;;;;4953560;28;20156;-77
2022/04/09 11:17:38;;;;;;;2.45;0.60;;;20.80;29.20;;;;;;4952637;28;20579;-76
2022/04/09 11:20:10;;;;;;;2.25;0.63;;;21.40;30.00;;;;;;4953677;28;20019;-77
2022/04/09 11:22:51;;;;;;;3.05;0.88;;;20.70;28.90;;;;;;4950326;28;20035;-76
2022/04/09 11:25:18;;;;;;;2.90;0.43;;;21.00;29.60;;;;;;4953414;28;20033;-76
2022/04/09 11:27:44;;;;;;;0.60;0.30;;;21.80;28.80;;;;;;4974200;23;20130;-75
2022/04/09 11:30:09;;;;;;;4.50;0.60;;;22.70;25.30;;;;;;4964192;28;20555;-75
2022/04/09 11:32:35;;;;;;;1.63;0.40;;;23.70;26.70;;;;;;4962235;28;20027;-74
2022/04/09 11:35:08;;;;;;;3.15;0.50;;;24.20;24.40;;;;;;4963484;28;20106;-74
2022/04/09 11:37:39;;;;;;;2.55;0.60;;;23.10;25.10;;;;;;4962867;28;20484;-76
2022/04/09 11:40:07;;;;;;;7.72;0.93;;;22.00;28.30;;;;;;4955562;28;20027;-75
2022/04/09 11:42:49;;;;;;;2.58;0.50;;;22.20;29.40;;;;;;4955297;28;20023;-75
2022/04/09 11:45:19;;;;;;;3.38;0.60;;;22.30;26.10;;;;;;4954513;29;20027;-76
2022/04/09 11:47:45;;;;;;;4.10;0.47;;;21.70;27.00;;;;;;4955661;28;20559;-75
2022/04/09 11:50:12;;;;;;;1.85;0.57;;;22.40;27.10;;;;;;4955789;29;20023;-74
2022/04/09 11:52:38;;;;;;;2.30;0.57;;;23.00;24.80;;;;;;4952604;29;20130;-75
2022/04/09 11:55:09;;;;;;;2.92;0.82;;;23.10;24.60;;;;;;4949016;28;20439;-75
2022/04/09 11:57:35;;;;;;;6.28;1.00;;;23.50;26.60;;;;;;4954133;29;20023;-76
2022/04/09 12:00:02;;;;;;;5.60;1.33;;;21.90;29.30;;;;;;4955239;28;20048;-76
2022/04/09 12:02:28;;;;;;;4.13;1.35;;;20.10;32.40;;;;;;4955373;28;20372;-75
2022/04/09 12:04:55;;;;;;;5.53;1.17;;;18.60;37.40;;;;;;4954347;28;20024;-75
2022/04/09 12:07:22;;;;;;;2.97;1.10;;;17.40;40.20;;;;;;4953850;28;20440;-74
2022/04/09 12:09:48;;;;;;;5.78;0.95;;;17.20;40.90;;;;;;4954982;28;20074;-75
2022/04/09 12:12:17;;;;;;;7.88;1.45;;;16.20;42.20;;;;;;4955145;28;20035;-74
2022/04/09 12:14:57;;;;;;;4.60;1.23;;;15.70;44.50;;;;;;4953790;29;20421;-75
2022/04/09 12:17:32;;;;;;;5.05;1.20;;;15.00;46.70;;;;;;4954917;28;20114;-75
2022/04/09 12:19:58;;;;;;;4.90;1.33;;;14.50;46.70;;;;;;4954979;28;20042;-75
2022/04/09 12:22:24;;;;;;;3.83;1.20;;;13.90;48.40;;;;;;4954503;29;20067;-74
2022/04/09 12:24:54;;;;;;;6.85;1.83;;;13.70;48.40;;;;;;4951969;29;20027;-76
2022/04/09 12:27:44;;;;;;;9.00;1.95;;;14.40;52.30;;;;;;4974390;23;20031;-76
2022/04/09 12:30:12;;;;;;;3.42;1.33;;;14.90;50.10;;;;;;4954128;29;20082;-76
2022/04/09 12:32:39;;;;;;;4.43;1.15;;;14.30;51.20;;;;;;4955219;28;20023;-76
2022/04/09 12:35:05;;;;;;;4.45;1.25;;;14.90;53.00;;;;;;4948329;28;20032;-76
2022/04/09 12:37:45;;;;;;;3.92;1.00;;;16.60;48.60;;;;;;4954774;28;20027;-76
2022/04/09 12:40:22;;;;;;;4.65;0.90;;;18.40;42.80;;;;;;4955205;28;20523;-76
2022/04/09 12:42:48;;;;;;;5.75;1.35;;;18.50;38.90;;;;;;4954823;28;20023;-77
2022/04/09 12:45:24;;;;;;;6.75;1.45;;;18.50;40.40;;;;;;4954086;28;20024;-77
2022/04/09 12:47:58;;;;;;;4.53;0.93;;;18.10;41.80;;;;;;4954655;28;20061;-76
2022/04/09 12:50:29;;;;;;;6.00;1.40;;;18.60;39.50;;;;;;4955308;28;20472;-77
2022/04/09 12:52:57;;;;;;;5.77;1.17;;;17.60;40.20;;;;;;4955168;29;20027;-76
2022/04/09 12:55:25;;;;;;;4.50;1.20;;;15.70;43.30;;;;;;4954518;28;20094;-76
2022/04/09 12:57:52;;;;;;;5.20;1.17;;;15.20;47.70;;;;;;4953962;28;20090;-77
2022/04/09 13:00:18;;;;;;;8.95;1.13;;;15.60;44.20;;;;;;4955089;28;20019;-77
2022/04/09 13:02:45;;;;;;;6.18;1.00;;;17.20;40.90;;;;;;4954482;28;20055;-78
2022/04/09 13:05:12;;;;;;;6.43;1.02;;;16.50;40.70;;;;;;4954675;28;20027;-78
2022/04/09 13:07:38;;;;;;;4.15;0.93;;;15.70;39.80;;;;;;4954935;28;20079;-77
2022/04/09 13:10:05;;;;;;;6.70;1.30;;;15.20;43.40;;;;;;4954866;28;20066;-77
2022/04/09 13:12:31;;;;;;;3.90;1.10;;;14.60;47.20;;;;;;4954295;28;20110;-77
2022/04/09 13:14:57;;;;;;;2.83;0.80;;;14.50;49.10;;;;;;4954888;28;20110;-77
2022/04/09 13:17:23;;;;;;;5.57;1.00;;;15.40;45.70;;;;;;4954288;28;20070;-77
2022/04/09 13:19:49;;;;;;;6.65;1.08;;;15.80;44.90;;;;;;4954239;28;20031;-77
2022/04/09 13:22:15;;;;;;;5.38;0.80;;;15.50;44.30;;;;;;4948445;28;20033;-77
2022/04/09 13:24:45;;;;;;;5.53;0.88;;;14.80;46.80;;;;;;4947025;28;20058;-76
2022/04/09 13:27:11;;;;;;;5.38;1.40;;;13.80;47.00;;;;;;4947531;29;20029;-77
2022/04/09 13:29:38;;;;;;;5.85;1.00;;;13.40;48.50;;;;;;4952245;28;20074;-77
2022/04/09 13:32:04;;;;;;;4.38;0.80;;;13.30;49.10;;;;;;4947725;29;20027;-81
2022/04/09 13:34:30;;;;;;;4.18;1.17;;;14.90;47.80;;;;;;4950677;28;20110;-80
2022/04/09 13:36:56;;;;;;;4.80;0.90;;;17.10;42.40;;;;;;4952802;28;20123;-80
2022/04/09 13:39:22;;;;;;;4.57;1.15;;;18.80;40.10;;;;;;4949076;28;20027;-76
2022/04/09 13:41:48;;;;;;;11.05;1.15;;;19.30;34.50;;;;;;4953675;28;20023;-78
2022/04/09 13:44:14;;;;;;;5.18;1.70;;;18.50;35.60;;;;;;4953663;28;20058;-77
2022/04/09 13:46:42;;;;;;;5.60;1.70;;;16.30;37.10;;;;;;4949411;28;20050;-77
2022/04/09 13:49:08;;;;;;;4.20;1.38;;;15.00;41.90;;;;;;4952620;28;20439;-76
2022/04/09 13:51:34;;;;;;;7.20;1.42;;;13.90;43.70;;;;;;4950607;29;20488;-76
2022/04/09 13:54:00;;;;;;;3.63;1.08;;;13.50;45.20;;;;;;4954279;28;20436;-76
2022/04/09 13:56:26;;;;;;;6.30;1.27;;;14.80;44.90;;;;;;4952100;28;20031;-76
2022/04/09 13:58:51;;;;;;;5.78;0.80;;;16.20;45.60;;;;;;4948020;28;20372;-76
2022/04/09 14:01:17;;;;;;;4.10;1.00;;;17.50;42.90;;;;;;4953874;28;20074;-76
2022/04/09 14:03:43;;;;;;;3.83;0.73;;;18.30;40.20;;;;;;4953679;28;20532;-75
2022/04/09 14:06:09;;;;;;;3.95;0.90;;;18.90;38.20;;;;;;4953221;28;20046;-76
2022/04/09 14:08:35;;;;;;;19.08;0.85;;;18.80;38.20;;;;;;4944042;28;20031;-76
2022/04/09 14:11:02;;;;;;;9.25;2.10;;;17.40;38.80;;;;;;4951634;29;20094;-76
2022/04/09 14:13:27;;;;;;;7.25;1.13;;;15.20;43.40;;;;;;4952792;28;20031;-76
2022/04/09 14:15:53;;;;;;;5.63;0.93;;;13.80;48.20;;;;;;4947977;28;20126;-77
2022/04/09 14:18:19;;;;;;;7.78;1.10;;;15.30;49.90;;;;;;4951161;29;20127;-77
2022/04/09 14:20:44;;;;;;;2.85;0.90;;;17.90;43.60;;;;;;4949090;28;20023;-76
2022/04/09 14:23:10;;;;;;;5.68;0.95;;;19.30;36.50;;;;;;4951809;28;20071;-78
2022/04/09 14:25:36;;;;;;;3.60;1.00;;;19.90;34.80;;;;;;4947686;28;20058;-78
2022/04/09 14:28:03;;;;;;;7.93;1.30;;;18.90;34.90;;;;;;4959722;23;20051;-78
2022/04/09 14:30:29;;;;;;;5.43;1.00;;;16.90;39.50;;;;;;4970705;28;20019;-77
2022/04/09 14:32:55;;;;;;;4.97;1.00;;;15.70;43.50;;;;;;4965334;28;20034;-78
2022/04/09 14:35:21;;;;;;;7.13;1.33;;;15.70;46.10;;;;;;4962677;28;20372;-77
2022/04/09 14:37:50;;;;;;;9.35;1.42;;;16.20;46.20;;;;;;4955889;28;20035;-77
2022/04/09 14:40:15;;;;;;;4.60;1.00;;;18.50;41.50;;;;;;4948036;29;20460;-76
2022/04/09 14:42:41;;;;;;;9.00;1.27;;;20.00;39.60;;;;;;4952956;28;20041;-79
2022/04/09 14:45:12;;;;;;;10.02;1.10;;;18.30;37.40;;;;;;4951742;28;20031;-78
2022/04/09 14:47:37;;;;;;;3.38;1.00;;;16.10;42.60;;;;;;4953337;28;20022;-78